sensor_id;sensor_type;location;lat;lon;timestamp;P1;durP1;ratioP1;P2;durP2;ratioP2
42682;SDS011;28293;50.930;3.464;2024-02-26T00:00:28;5.55;;;3.08;;
42682;SDS011;28293;50.930;3.464;2024-02-26T00:02:55;5.30;;;3.17;;
42682;SDS011;28293;50.930;3.464;2024-02-26T00:05:21;5.47;;;2.97;;
42682;SDS011;28293;50.930;3.464;2024-02-26T00:07:46;7.80;;;2.97;;
42682;SDS011;28293;50.930;3.464;2024-02-26T00:10:13;7.20;;;3.38;;
42682;SDS011;28293;50.930;3.464;2024-02-26T00:12:39;7.47;;;3.17;;
42682;SDS011;28293;50.930;3.464;2024-02-26T00:15:05;8.13;;;3.47;;
42682;SDS011;28293;50.930;3.464;2024-02-26T00:17:31;8.75;;;3.50;;
42682;SDS011;28293;50.930;3.464;2024-02-26T00:19:57;8.52;;;3.83;;
42682;SDS011;28293;50.930;3.464;2024-02-26T00:22:23;8.48;;;3.67;;
42682;SDS011;28293;50.930;3.464;2024-02-26T00:24:49;6.63;;;3.42;;
42682;SDS011;28293;50.930;3.464;2024-02-26T00:27:14;6.38;;;3.97;;
42682;SDS011;28293;50.930;3.464;2024-02-26T00:29:40;9.63;;;3.80;;
42682;SDS011;28293;50.930;3.464;2024-02-26T00:32:06;7.55;;;3.40;;
42682;SDS011;28293;50.930;3.464;2024-02-26T00:34:31;6.78;;;3.78;;
42682;SDS011;28293;50.930;3.464;2024-02-26T00:36:57;6.68;;;3.60;;
42682;SDS011;28293;50.930;3.464;2024-02-26T00:39:23;6.25;;;3.92;;
42682;SDS011;28293;50.930;3.464;2024-02-26T00:41:49;8.75;;;3.40;;
42682;SDS011;28293;50.930;3.464;2024-02-26T00:44:16;8.15;;;4.20;;
42682;SDS011;28293;50.930;3.464;2024-02-26T00:46:42;6.10;;;3.47;;
42682;SDS011;28293;50.930;3.464;2024-02-26T00:49:07;6.65;;;3.60;;
42682;SDS011;28293;50.930;3.464;2024-02-26T00:51:33;8.45;;;3.80;;
42682;SDS011;28293;50.930;3.464;2024-02-26T00:53:59;5.13;;;3.25;;
42682;SDS011;28293;50.930;3.464;2024-02-26T00:56:24;7.22;;;3.88;;
42682;SDS011;28293;50.930;3.464;2024-02-26T00:58:50;7.72;;;3.70;;
42682;SDS011;28293;50.930;3.464;2024-02-26T01:01:16;7.80;;;3.47;;
42682;SDS011;28293;50.930;3.464;2024-02-26T01:03:42;5.97;;;3.08;;
42682;SDS011;28293;50.930;3.464;2024-02-26T01:06:07;9.32;;;3.30;;
42682;SDS011;28293;50.930;3.464;2024-02-26T01:08:34;6.10;;;3.35;;
42682;SDS011;28293;50.930;3.464;2024-02-26T01:11:00;13.45;;;5.53;;
42682;SDS011;28293;50.930;3.464;2024-02-26T01:13:26;7.45;;;3.78;;
42682;SDS011;28293;50.930;3.464;2024-02-26T01:15:52;6.28;;;3.47;;
42682;SDS011;28293;50.930;3.464;2024-02-26T01:18:18;6.95;;;3.67;;
42682;SDS011;28293;50.930;3.464;2024-02-26T01:20:44;7.35;;;3.50;;
42682;SDS011;28293;50.930;3.464;2024-02-26T01:23:09;6.88;;;3.58;;
42682;SDS011;28293;50.930;3.464;2024-02-26T01:25:35;7.70;;;3.95;;
42682;SDS011;28293;50.930;3.464;2024-02-26T01:28:01;6.95;;;3.75;;
42682;SDS011;28293;50.930;3.464;2024-02-26T01:30:28;9.25;;;3.55;;
42682;SDS011;28293;50.930;3.464;2024-02-26T01:32:53;6.45;;;3.65;;
42682;SDS011;28293;50.930;3.464;2024-02-26T01:35:19;7.47;;;3.72;;
42682;SDS011;28293;50.930;3.464;2024-02-26T01:37:45;6.30;;;3.80;;
42682;SDS011;28293;50.930;3.464;2024-02-26T01:40:10;6.90;;;3.70;;
42682;SDS011;28293;50.930;3.464;2024-02-26T01:42:40;6.80;;;3.63;;
42682;SDS011;28293;50.930;3.464;2024-02-26T01:45:06;7.07;;;3.83;;
42682;SDS011;28293;50.930;3.464;2024-02-26T01:47:41;6.75;;;3.58;;
42682;SDS011;28293;50.930;3.464;2024-02-26T01:50:07;4.97;;;2.80;;
42682;SDS011;28293;50.930;3.464;2024-02-26T01:52:33;6.45;;;3.05;;
42682;SDS011;28293;50.930;3.464;2024-02-26T01:54:59;6.05;;;3.38;;
42682;SDS011;28293;50.930;3.464;2024-02-26T01:57:26;5.20;;;3.00;;
42682;SDS011;28293;50.930;3.464;2024-02-26T01:59:53;6.90;;;3.28;;
42682;SDS011;28293;50.930;3.464;2024-02-26T02:02:19;5.13;;;3.00;;
42682;SDS011;28293;50.930;3.464;2024-02-26T02:04:45;7.22;;;3.13;;
42682;SDS011;28293;50.930;3.464;2024-02-26T02:07:11;5.28;;;3.00;;
42682;SDS011;28293;50.930;3.464;2024-02-26T02:09:38;6.03;;;3.25;;
42682;SDS011;28293;50.930;3.464;2024-02-26T02:12:04;6.50;;;2.92;;
42682;SDS011;28293;50.930;3.464;2024-02-26T02:14:31;6.32;;;3.13;;
42682;SDS011;28293;50.930;3.464;2024-02-26T02:16:56;5.80;;;3.58;;
42682;SDS011;28293;50.930;3.464;2024-02-26T02:19:22;7.00;;;3.50;;
42682;SDS011;28293;50.930;3.464;2024-02-26T02:21:47;6.57;;;3.63;;
42682;SDS011;28293;50.930;3.464;2024-02-26T02:24:13;5.32;;;3.00;;
42682;SDS011;28293;50.930;3.464;2024-02-26T02:26:39;6.68;;;3.42;;
42682;SDS011;28293;50.930;3.464;2024-02-26T02:29:04;6.43;;;3.35;;
42682;SDS011;28293;50.930;3.464;2024-02-26T02:31:31;6.38;;;3.55;;
42682;SDS011;28293;50.930;3.464;2024-02-26T02:33:57;6.45;;;3.60;;
42682;SDS011;28293;50.930;3.464;2024-02-26T02:36:23;5.25;;;3.50;;
42682;SDS011;28293;50.930;3.464;2024-02-26T02:38:49;7.70;;;3.83;;
42682;SDS011;28293;50.930;3.464;2024-02-26T02:41:15;5.93;;;3.67;;
42682;SDS011;28293;50.930;3.464;2024-02-26T02:43:41;6.60;;;3.50;;
42682;SDS011;28293;50.930;3.464;2024-02-26T02:46:06;7.55;;;3.63;;
42682;SDS011;28293;50.930;3.464;2024-02-26T02:48:32;7.00;;;3.63;;
42682;SDS011;28293;50.930;3.464;2024-02-26T02:50:58;6.00;;;3.83;;
42682;SDS011;28293;50.930;3.464;2024-02-26T02:53:23;7.65;;;3.80;;
42682;SDS011;28293;50.930;3.464;2024-02-26T02:55:49;6.35;;;3.00;;
42682;SDS011;28293;50.930;3.464;2024-02-26T02:58:15;6.72;;;3.35;;
42682;SDS011;28293;50.930;3.464;2024-02-26T03:00:40;5.43;;;3.28;;
42682;SDS011;28293;50.930;3.464;2024-02-26T03:03:06;5.82;;;3.50;;
42682;SDS011;28293;50.930;3.464;2024-02-26T03:05:32;6.50;;;3.30;;
42682;SDS011;28293;50.930;3.464;2024-02-26T03:07:57;4.55;;;2.90;;
42682;SDS011;28293;50.930;3.464;2024-02-26T03:10:23;5.82;;;2.90;;
42682;SDS011;28293;50.930;3.464;2024-02-26T03:12:49;5.28;;;3.22;;
42682;SDS011;28293;50.930;3.464;2024-02-26T03:15:15;7.03;;;3.75;;
42682;SDS011;28293;50.930;3.464;2024-02-26T03:17:41;6.05;;;3.40;;
42682;SDS011;28293;50.930;3.464;2024-02-26T03:20:07;6.18;;;3.40;;
42682;SDS011;28293;50.930;3.464;2024-02-26T03:22:34;6.13;;;3.30;;
42682;SDS011;28293;50.930;3.464;2024-02-26T03:25:00;5.57;;;3.33;;
42682;SDS011;28293;50.930;3.464;2024-02-26T03:27:26;6.53;;;3.80;;
42682;SDS011;28293;50.930;3.464;2024-02-26T03:29:52;5.95;;;3.42;;
42682;SDS011;28293;50.930;3.464;2024-02-26T03:32:18;7.43;;;4.15;;
42682;SDS011;28293;50.930;3.464;2024-02-26T03:34:43;8.48;;;3.85;;
42682;SDS011;28293;50.930;3.464;2024-02-26T03:37:09;7.93;;;4.63;;
42682;SDS011;28293;50.930;3.464;2024-02-26T03:39:36;8.85;;;5.15;;
42682;SDS011;28293;50.930;3.464;2024-02-26T03:42:02;9.40;;;5.03;;
42682;SDS011;28293;50.930;3.464;2024-02-26T03:44:28;7.35;;;5.45;;
42682;SDS011;28293;50.930;3.464;2024-02-26T03:46:53;8.85;;;5.65;;
42682;SDS011;28293;50.930;3.464;2024-02-26T03:49:19;9.63;;;6.05;;
42682;SDS011;28293;50.930;3.464;2024-02-26T03:51:44;11.02;;;6.75;;
42682;SDS011;28293;50.930;3.464;2024-02-26T03:54:10;10.70;;;6.35;;
42682;SDS011;28293;50.930;3.464;2024-02-26T03:56:36;9.60;;;6.75;;
42682;SDS011;28293;50.930;3.464;2024-02-26T03:59:01;9.05;;;6.57;;
42682;SDS011;28293;50.930;3.464;2024-02-26T04:01:27;9.45;;;7.07;;
42682;SDS011;28293;50.930;3.464;2024-02-26T04:03:53;9.48;;;7.00;;
42682;SDS011;28293;50.930;3.464;2024-02-26T04:06:19;10.82;;;7.53;;
42682;SDS011;28293;50.930;3.464;2024-02-26T04:08:46;10.48;;;8.15;;
42682;SDS011;28293;50.930;3.464;2024-02-26T04:11:12;10.70;;;8.02;;
42682;SDS011;28293;50.930;3.464;2024-02-26T04:13:38;11.70;;;8.48;;
42682;SDS011;28293;50.930;3.464;2024-02-26T04:16:04;10.95;;;8.63;;
42682;SDS011;28293;50.930;3.464;2024-02-26T04:18:31;12.75;;;10.10;;
42682;SDS011;28293;50.930;3.464;2024-02-26T04:20:57;10.93;;;8.80;;
42682;SDS011;28293;50.930;3.464;2024-02-26T04:23:23;14.88;;;10.15;;
42682;SDS011;28293;50.930;3.464;2024-02-26T04:25:48;11.38;;;9.35;;
42682;SDS011;28293;50.930;3.464;2024-02-26T04:28:14;11.68;;;9.63;;
42682;SDS011;28293;50.930;3.464;2024-02-26T04:30:40;14.00;;;9.48;;
42682;SDS011;28293;50.930;3.464;2024-02-26T04:33:06;12.10;;;10.07;;
42682;SDS011;28293;50.930;3.464;2024-02-26T04:35:32;13.30;;;10.30;;
42682;SDS011;28293;50.930;3.464;2024-02-26T04:37:58;13.52;;;11.25;;
42682;SDS011;28293;50.930;3.464;2024-02-26T04:40:23;14.82;;;11.75;;
42682;SDS011;28293;50.930;3.464;2024-02-26T04:42:49;13.43;;;10.10;;
42682;SDS011;28293;50.930;3.464;2024-02-26T04:45:15;14.35;;;12.00;;
42682;SDS011;28293;50.930;3.464;2024-02-26T04:47:41;13.77;;;12.32;;
42682;SDS011;28293;50.930;3.464;2024-02-26T04:50:07;15.75;;;13.20;;
42682;SDS011;28293;50.930;3.464;2024-02-26T04:52:32;16.90;;;13.27;;
42682;SDS011;28293;50.930;3.464;2024-02-26T04:54:58;15.65;;;13.52;;
42682;SDS011;28293;50.930;3.464;2024-02-26T04:57:25;15.95;;;13.07;;
42682;SDS011;28293;50.930;3.464;2024-02-26T04:59:51;15.32;;;13.43;;
42682;SDS011;28293;50.930;3.464;2024-02-26T05:02:17;15.73;;;13.27;;
42682;SDS011;28293;50.930;3.464;2024-02-26T05:04:43;15.68;;;13.55;;
42682;SDS011;28293;50.930;3.464;2024-02-26T05:07:08;15.20;;;12.48;;
42682;SDS011;28293;50.930;3.464;2024-02-26T05:09:34;14.02;;;11.57;;
42682;SDS011;28293;50.930;3.464;2024-02-26T05:12:00;17.33;;;12.88;;
42682;SDS011;28293;50.930;3.464;2024-02-26T05:14:26;15.60;;;12.30;;
42682;SDS011;28293;50.930;3.464;2024-02-26T05:16:51;15.27;;;12.82;;
42682;SDS011;28293;50.930;3.464;2024-02-26T05:19:17;14.40;;;11.43;;
42682;SDS011;28293;50.930;3.464;2024-02-26T05:21:42;13.75;;;12.32;;
42682;SDS011;28293;50.930;3.464;2024-02-26T05:24:09;14.68;;;12.32;;
42682;SDS011;28293;50.930;3.464;2024-02-26T05:26:35;14.27;;;12.13;;
42682;SDS011;28293;50.930;3.464;2024-02-26T05:29:00;16.27;;;12.45;;
42682;SDS011;28293;50.930;3.464;2024-02-26T05:31:26;14.80;;;12.68;;
42682;SDS011;28293;50.930;3.464;2024-02-26T05:33:53;13.88;;;12.07;;
42682;SDS011;28293;50.930;3.464;2024-02-26T05:36:22;14.27;;;12.63;;
42682;SDS011;28293;50.930;3.464;2024-02-26T05:38:49;13.95;;;12.45;;
42682;SDS011;28293;50.930;3.464;2024-02-26T05:41:18;13.73;;;12.32;;
42682;SDS011;28293;50.930;3.464;2024-02-26T05:43:48;13.73;;;12.20;;
42682;SDS011;28293;50.930;3.464;2024-02-26T05:46:16;14.15;;;12.05;;
42682;SDS011;28293;50.930;3.464;2024-02-26T05:48:43;15.95;;;12.13;;
42682;SDS011;28293;50.930;3.464;2024-02-26T05:51:09;12.95;;;11.20;;
42682;SDS011;28293;50.930;3.464;2024-02-26T05:53:35;14.30;;;11.93;;
42682;SDS011;28293;50.930;3.464;2024-02-26T05:56:00;13.82;;;11.20;;
42682;SDS011;28293;50.930;3.464;2024-02-26T05:58:26;15.07;;;11.13;;
42682;SDS011;28293;50.930;3.464;2024-02-26T06:00:51;11.88;;;10.57;;
42682;SDS011;28293;50.930;3.464;2024-02-26T06:03:17;13.55;;;11.32;;
42682;SDS011;28293;50.930;3.464;2024-02-26T06:05:43;14.43;;;11.20;;
42682;SDS011;28293;50.930;3.464;2024-02-26T06:08:08;12.48;;;10.40;;
42682;SDS011;28293;50.930;3.464;2024-02-26T06:10:34;12.75;;;10.85;;
42682;SDS011;28293;50.930;3.464;2024-02-26T06:13:00;12.98;;;10.23;;
42682;SDS011;28293;50.930;3.464;2024-02-26T06:15:25;13.65;;;10.82;;
42682;SDS011;28293;50.930;3.464;2024-02-26T06:17:51;14.27;;;11.43;;
42682;SDS011;28293;50.930;3.464;2024-02-26T06:20:16;14.88;;;12.55;;
42682;SDS011;28293;50.930;3.464;2024-02-26T06:22:42;16.27;;;12.90;;
42682;SDS011;28293;50.930;3.464;2024-02-26T06:25:08;14.02;;;12.00;;
42682;SDS011;28293;50.930;3.464;2024-02-26T06:27:34;16.48;;;13.77;;
42682;SDS011;28293;50.930;3.464;2024-02-26T06:30:00;14.25;;;12.75;;
42682;SDS011;28293;50.930;3.464;2024-02-26T06:32:25;16.00;;;13.45;;
42682;SDS011;28293;50.930;3.464;2024-02-26T06:34:53;16.17;;;14.25;;
42682;SDS011;28293;50.930;3.464;2024-02-26T06:37:18;17.15;;;14.73;;
42682;SDS011;28293;50.930;3.464;2024-02-26T06:39:44;16.17;;;14.15;;
42682;SDS011;28293;50.930;3.464;2024-02-26T06:42:09;15.57;;;13.88;;
42682;SDS011;28293;50.930;3.464;2024-02-26T06:44:35;17.27;;;14.95;;
42682;SDS011;28293;50.930;3.464;2024-02-26T06:47:01;17.67;;;15.15;;
42682;SDS011;28293;50.930;3.464;2024-02-26T06:49:27;18.20;;;15.70;;
42682;SDS011;28293;50.930;3.464;2024-02-26T06:51:53;19.05;;;17.05;;
42682;SDS011;28293;50.930;3.464;2024-02-26T06:54:19;19.33;;;17.33;;
42682;SDS011;28293;50.930;3.464;2024-02-26T06:56:45;19.83;;;15.90;;
42682;SDS011;28293;50.930;3.464;2024-02-26T06:59:11;18.65;;;16.45;;
42682;SDS011;28293;50.930;3.464;2024-02-26T07:01:36;19.25;;;16.70;;
42682;SDS011;28293;50.930;3.464;2024-02-26T07:04:02;20.10;;;17.80;;
42682;SDS011;28293;50.930;3.464;2024-02-26T07:06:28;19.05;;;16.70;;
42682;SDS011;28293;50.930;3.464;2024-02-26T07:08:53;18.63;;;16.45;;
42682;SDS011;28293;50.930;3.464;2024-02-26T07:11:19;18.45;;;16.55;;
42682;SDS011;28293;50.930;3.464;2024-02-26T07:13:45;19.02;;;16.35;;
42682;SDS011;28293;50.930;3.464;2024-02-26T07:16:11;17.35;;;15.52;;
42682;SDS011;28293;50.930;3.464;2024-02-26T07:18:37;17.70;;;14.35;;
42682;SDS011;28293;50.930;3.464;2024-02-26T07:21:06;16.63;;;14.90;;
42682;SDS011;28293;50.930;3.464;2024-02-26T07:23:31;16.45;;;14.40;;
42682;SDS011;28293;50.930;3.464;2024-02-26T07:25:57;16.35;;;13.93;;
42682;SDS011;28293;50.930;3.464;2024-02-26T07:28:23;17.52;;;15.07;;
42682;SDS011;28293;50.930;3.464;2024-02-26T07:30:49;15.90;;;14.25;;
42682;SDS011;28293;50.930;3.464;2024-02-26T07:33:15;15.95;;;14.25;;
42682;SDS011;28293;50.930;3.464;2024-02-26T07:35:41;18.15;;;15.15;;
42682;SDS011;28293;50.930;3.464;2024-02-26T07:38:06;17.67;;;14.38;;
42682;SDS011;28293;50.930;3.464;2024-02-26T07:40:32;18.00;;;14.13;;
42682;SDS011;28293;50.930;3.464;2024-02-26T07:42:58;15.80;;;13.68;;
42682;SDS011;28293;50.930;3.464;2024-02-26T07:45:23;16.02;;;12.80;;
42682;SDS011;28293;50.930;3.464;2024-02-26T07:47:49;15.90;;;12.60;;
42682;SDS011;28293;50.930;3.464;2024-02-26T07:50:16;14.55;;;12.70;;
42682;SDS011;28293;50.930;3.464;2024-02-26T07:52:42;15.00;;;12.10;;
42682;SDS011;28293;50.930;3.464;2024-02-26T07:55:07;15.75;;;11.80;;
42682;SDS011;28293;50.930;3.464;2024-02-26T07:57:33;14.18;;;12.35;;
42682;SDS011;28293;50.930;3.464;2024-02-26T07:59:59;14.32;;;11.80;;
42682;SDS011;28293;50.930;3.464;2024-02-26T08:02:25;14.73;;;12.20;;
42682;SDS011;28293;50.930;3.464;2024-02-26T08:04:51;14.82;;;11.88;;
42682;SDS011;28293;50.930;3.464;2024-02-26T08:07:16;16.25;;;12.23;;
42682;SDS011;28293;50.930;3.464;2024-02-26T08:09:42;13.25;;;11.20;;
42682;SDS011;28293;50.930;3.464;2024-02-26T08:12:08;15.85;;;11.40;;
42682;SDS011;28293;50.930;3.464;2024-02-26T08:14:34;13.20;;;11.25;;
42682;SDS011;28293;50.930;3.464;2024-02-26T08:16:59;15.27;;;12.18;;
42682;SDS011;28293;50.930;3.464;2024-02-26T08:19:25;13.85;;;11.50;;
42682;SDS011;28293;50.930;3.464;2024-02-26T08:21:52;16.48;;;11.40;;
42682;SDS011;28293;50.930;3.464;2024-02-26T08:24:17;12.82;;;10.13;;
42682;SDS011;28293;50.930;3.464;2024-02-26T08:26:43;15.77;;;10.93;;
42682;SDS011;28293;50.930;3.464;2024-02-26T08:29:08;14.13;;;10.93;;
42682;SDS011;28293;50.930;3.464;2024-02-26T08:31:34;14.38;;;11.00;;
42682;SDS011;28293;50.930;3.464;2024-02-26T08:34:02;20.02;;;12.60;;
42682;SDS011;28293;50.930;3.464;2024-02-26T08:36:28;17.58;;;11.45;;
42682;SDS011;28293;50.930;3.464;2024-02-26T08:38:56;14.88;;;10.45;;
42682;SDS011;28293;50.930;3.464;2024-02-26T08:41:22;15.32;;;11.00;;
42682;SDS011;28293;50.930;3.464;2024-02-26T08:43:47;16.45;;;11.52;;
42682;SDS011;28293;50.930;3.464;2024-02-26T08:46:13;13.63;;;10.80;;
42682;SDS011;28293;50.930;3.464;2024-02-26T08:48:39;16.65;;;12.13;;
42682;SDS011;28293;50.930;3.464;2024-02-26T08:51:09;13.65;;;10.43;;
42682;SDS011;28293;50.930;3.464;2024-02-26T08:53:35;18.17;;;12.80;;
42682;SDS011;28293;50.930;3.464;2024-02-26T08:56:01;14.77;;;11.82;;
42682;SDS011;28293;50.930;3.464;2024-02-26T08:58:27;14.43;;;11.57;;
42682;SDS011;28293;50.930;3.464;2024-02-26T09:00:53;13.63;;;10.65;;
42682;SDS011;28293;50.930;3.464;2024-02-26T09:03:19;14.95;;;11.75;;
42682;SDS011;28293;50.930;3.464;2024-02-26T09:05:44;15.50;;;11.57;;
42682;SDS011;28293;50.930;3.464;2024-02-26T09:08:10;14.95;;;11.38;;
42682;SDS011;28293;50.930;3.464;2024-02-26T09:10:36;17.20;;;12.07;;
42682;SDS011;28293;50.930;3.464;2024-02-26T09:13:01;14.65;;;11.73;;
42682;SDS011;28293;50.930;3.464;2024-02-26T09:15:27;15.68;;;12.10;;
42682;SDS011;28293;50.930;3.464;2024-02-26T09:17:53;15.55;;;12.35;;
42682;SDS011;28293;50.930;3.464;2024-02-26T09:20:18;17.02;;;12.55;;
42682;SDS011;28293;50.930;3.464;2024-02-26T09:22:47;16.88;;;12.07;;
42682;SDS011;28293;50.930;3.464;2024-02-26T09:25:13;15.93;;;11.65;;
42682;SDS011;28293;50.930;3.464;2024-02-26T09:27:41;14.82;;;11.93;;
42682;SDS011;28293;50.930;3.464;2024-02-26T09:30:10;15.88;;;11.77;;
42682;SDS011;28293;50.930;3.464;2024-02-26T09:32:37;17.60;;;12.80;;
42682;SDS011;28293;50.930;3.464;2024-02-26T09:35:03;14.68;;;11.65;;
42682;SDS011;28293;50.930;3.464;2024-02-26T09:37:30;16.35;;;12.20;;
42682;SDS011;28293;50.930;3.464;2024-02-26T09:39:56;21.65;;;13.48;;
42682;SDS011;28293;50.930;3.464;2024-02-26T09:42:22;15.52;;;11.82;;
42682;SDS011;28293;50.930;3.464;2024-02-26T09:44:51;17.02;;;12.80;;
42682;SDS011;28293;50.930;3.464;2024-02-26T09:47:19;16.77;;;13.00;;
42682;SDS011;28293;50.930;3.464;2024-02-26T09:49:47;16.77;;;13.50;;
42682;SDS011;28293;50.930;3.464;2024-02-26T09:52:16;16.42;;;12.50;;
42682;SDS011;28293;50.930;3.464;2024-02-26T09:54:47;15.13;;;11.52;;
42682;SDS011;28293;50.930;3.464;2024-02-26T09:57:12;16.65;;;13.43;;
42682;SDS011;28293;50.930;3.464;2024-02-26T09:59:42;18.95;;;14.50;;
42682;SDS011;28293;50.930;3.464;2024-02-26T10:02:12;17.50;;;13.65;;
42682;SDS011;28293;50.930;3.464;2024-02-26T10:04:42;17.48;;;13.18;;
42682;SDS011;28293;50.930;3.464;2024-02-26T10:07:11;14.38;;;12.52;;
42682;SDS011;28293;50.930;3.464;2024-02-26T10:09:38;17.92;;;13.10;;
42682;SDS011;28293;50.930;3.464;2024-02-26T10:12:05;16.35;;;13.20;;
42682;SDS011;28293;50.930;3.464;2024-02-26T10:14:34;18.60;;;15.05;;
42682;SDS011;28293;50.930;3.464;2024-02-26T10:17:01;16.95;;;14.00;;
42682;SDS011;28293;50.930;3.464;2024-02-26T10:19:27;17.02;;;12.77;;
42682;SDS011;28293;50.930;3.464;2024-02-26T10:21:57;14.85;;;12.38;;
42682;SDS011;28293;50.930;3.464;2024-02-26T10:24:24;16.60;;;13.77;;
42682;SDS011;28293;50.930;3.464;2024-02-26T10:26:50;19.13;;;14.05;;
42682;SDS011;28293;50.930;3.464;2024-02-26T10:29:18;16.20;;;13.43;;
42682;SDS011;28293;50.930;3.464;2024-02-26T10:31:44;14.75;;;11.70;;
42682;SDS011;28293;50.930;3.464;2024-02-26T10:34:10;17.27;;;13.45;;
42682;SDS011;28293;50.930;3.464;2024-02-26T10:36:36;17.67;;;13.15;;
42682;SDS011;28293;50.930;3.464;2024-02-26T10:39:03;16.42;;;12.55;;
42682;SDS011;28293;50.930;3.464;2024-02-26T10:41:30;18.33;;;12.88;;
42682;SDS011;28293;50.930;3.464;2024-02-26T10:43:58;17.50;;;12.75;;
42682;SDS011;28293;50.930;3.464;2024-02-26T10:46:23;20.33;;;13.45;;
42682;SDS011;28293;50.930;3.464;2024-02-26T10:48:51;15.52;;;12.82;;
42682;SDS011;28293;50.930;3.464;2024-02-26T10:51:27;16.00;;;12.35;;
42682;SDS011;28293;50.930;3.464;2024-02-26T10:53:57;15.93;;;12.10;;
42682;SDS011;28293;50.930;3.464;2024-02-26T10:56:24;17.80;;;12.80;;
42682;SDS011;28293;50.930;3.464;2024-02-26T10:58:52;15.35;;;11.45;;
42682;SDS011;28293;50.930;3.464;2024-02-26T11:01:18;18.40;;;13.18;;
42682;SDS011;28293;50.930;3.464;2024-02-26T11:03:46;19.40;;;13.95;;
42682;SDS011;28293;50.930;3.464;2024-02-26T11:06:16;21.83;;;15.50;;
42682;SDS011;28293;50.930;3.464;2024-02-26T11:08:42;23.25;;;16.35;;
42682;SDS011;28293;50.930;3.464;2024-02-26T11:11:08;24.42;;;16.98;;
42682;SDS011;28293;50.930;3.464;2024-02-26T11:13:34;23.85;;;16.95;;
42682;SDS011;28293;50.930;3.464;2024-02-26T11:16:04;26.15;;;16.70;;
42682;SDS011;28293;50.930;3.464;2024-02-26T11:18:31;23.90;;;17.65;;
42682;SDS011;28293;50.930;3.464;2024-02-26T11:20:59;25.58;;;17.35;;
42682;SDS011;28293;50.930;3.464;2024-02-26T11:23:25;24.60;;;17.08;;
42682;SDS011;28293;50.930;3.464;2024-02-26T11:25:52;24.45;;;17.40;;
42682;SDS011;28293;50.930;3.464;2024-02-26T11:28:19;24.60;;;17.55;;
42682;SDS011;28293;50.930;3.464;2024-02-26T11:30:47;24.38;;;17.67;;
42682;SDS011;28293;50.930;3.464;2024-02-26T11:33:14;27.10;;;18.42;;
42682;SDS011;28293;50.930;3.464;2024-02-26T11:35:41;27.17;;;19.02;;
42682;SDS011;28293;50.930;3.464;2024-02-26T11:38:07;27.40;;;19.10;;
42682;SDS011;28293;50.930;3.464;2024-02-26T11:40:37;27.63;;;19.55;;
42682;SDS011;28293;50.930;3.464;2024-02-26T11:43:07;27.27;;;19.80;;
42682;SDS011;28293;50.930;3.464;2024-02-26T11:50:41;25.08;;;19.02;;
42682;SDS011;28293;50.930;3.464;2024-02-26T11:53:24;25.48;;;19.17;;
42682;SDS011;28293;50.930;3.464;2024-02-26T11:59:09;25.05;;;17.33;;
42682;SDS011;28293;50.930;3.464;2024-02-26T12:04:04;22.58;;;16.73;;
42682;SDS011;28293;50.930;3.464;2024-02-26T12:06:31;22.23;;;16.40;;
42682;SDS011;28293;50.930;3.464;2024-02-26T12:09:10;27.50;;;19.10;;
42682;SDS011;28293;50.930;3.464;2024-02-26T12:11:40;22.38;;;16.77;;
42682;SDS011;28293;50.930;3.464;2024-02-26T12:14:07;20.08;;;15.00;;
42682;SDS011;28293;50.930;3.464;2024-02-26T12:16:34;21.60;;;15.25;;
42682;SDS011;28293;50.930;3.464;2024-02-26T12:19:03;20.42;;;14.88;;
42682;SDS011;28293;50.930;3.464;2024-02-26T12:21:31;21.42;;;16.02;;
42682;SDS011;28293;50.930;3.464;2024-02-26T12:24:06;19.85;;;13.57;;
42682;SDS011;28293;50.930;3.464;2024-02-26T12:26:40;20.48;;;15.65;;
42682;SDS011;28293;50.930;3.464;2024-02-26T12:29:06;19.20;;;14.57;;
42682;SDS011;28293;50.930;3.464;2024-02-26T12:31:32;19.17;;;14.00;;
42682;SDS011;28293;50.930;3.464;2024-02-26T12:33:59;17.70;;;13.65;;
42682;SDS011;28293;50.930;3.464;2024-02-26T12:36:25;16.63;;;13.48;;
42682;SDS011;28293;50.930;3.464;2024-02-26T12:38:51;17.35;;;14.20;;
42682;SDS011;28293;50.930;3.464;2024-02-26T12:41:18;17.00;;;12.50;;
42682;SDS011;28293;50.930;3.464;2024-02-26T12:43:44;15.95;;;11.93;;
42682;SDS011;28293;50.930;3.464;2024-02-26T12:46:10;15.32;;;11.45;;
42682;SDS011;28293;50.930;3.464;2024-02-26T12:48:38;14.70;;;11.75;;
42682;SDS011;28293;50.930;3.464;2024-02-26T12:51:04;15.13;;;11.27;;
42682;SDS011;28293;50.930;3.464;2024-02-26T12:53:31;15.23;;;10.80;;
42682;SDS011;28293;50.930;3.464;2024-02-26T12:55:57;15.40;;;10.80;;
42682;SDS011;28293;50.930;3.464;2024-02-26T12:58:23;13.70;;;10.48;;
42682;SDS011;28293;50.930;3.464;2024-02-26T13:00:53;13.98;;;10.10;;
42682;SDS011;28293;50.930;3.464;2024-02-26T13:03:19;15.18;;;11.23;;
42682;SDS011;28293;50.930;3.464;2024-02-26T13:05:47;14.68;;;10.48;;
42682;SDS011;28293;50.930;3.464;2024-02-26T13:08:19;15.63;;;9.93;;
42682;SDS011;28293;50.930;3.464;2024-02-26T13:10:46;14.38;;;10.73;;
42682;SDS011;28293;50.930;3.464;2024-02-26T13:13:16;12.35;;;8.68;;
42682;SDS011;28293;50.930;3.464;2024-02-26T13:15:43;14.43;;;10.50;;
42682;SDS011;28293;50.930;3.464;2024-02-26T13:18:09;12.98;;;9.80;;
42682;SDS011;28293;50.930;3.464;2024-02-26T13:20:36;13.65;;;9.98;;
42682;SDS011;28293;50.930;3.464;2024-02-26T13:23:06;13.75;;;9.73;;
42682;SDS011;28293;50.930;3.464;2024-02-26T13:25:33;12.40;;;9.10;;
42682;SDS011;28293;50.930;3.464;2024-02-26T13:28:14;15.43;;;9.65;;
42682;SDS011;28293;50.930;3.464;2024-02-26T13:30:41;12.82;;;9.60;;
42682;SDS011;28293;50.930;3.464;2024-02-26T13:33:11;12.05;;;8.93;;
42682;SDS011;28293;50.930;3.464;2024-02-26T13:35:37;15.32;;;9.90;;
42682;SDS011;28293;50.930;3.464;2024-02-26T13:38:05;14.82;;;10.55;;
42682;SDS011;28293;50.930;3.464;2024-02-26T13:40:34;13.77;;;10.23;;
42682;SDS011;28293;50.930;3.464;2024-02-26T13:43:00;14.60;;;10.38;;
42682;SDS011;28293;50.930;3.464;2024-02-26T13:45:26;13.18;;;9.52;;
42682;SDS011;28293;50.930;3.464;2024-02-26T13:47:52;13.82;;;10.25;;
42682;SDS011;28293;50.930;3.464;2024-02-26T13:50:18;13.45;;;9.65;;
42682;SDS011;28293;50.930;3.464;2024-02-26T13:52:46;12.45;;;9.93;;
42682;SDS011;28293;50.930;3.464;2024-02-26T13:55:18;13.25;;;9.63;;
42682;SDS011;28293;50.930;3.464;2024-02-26T13:57:44;14.60;;;11.38;;
42682;SDS011;28293;50.930;3.464;2024-02-26T14:00:10;14.05;;;11.18;;
42682;SDS011;28293;50.930;3.464;2024-02-26T14:02:36;12.65;;;9.85;;
42682;SDS011;28293;50.930;3.464;2024-02-26T14:05:01;14.55;;;10.25;;
42682;SDS011;28293;50.930;3.464;2024-02-26T14:07:29;13.02;;;9.60;;
42682;SDS011;28293;50.930;3.464;2024-02-26T14:09:57;12.43;;;9.35;;
42682;SDS011;28293;50.930;3.464;2024-02-26T14:12:23;12.82;;;9.63;;
42682;SDS011;28293;50.930;3.464;2024-02-26T14:14:48;15.20;;;10.38;;
42682;SDS011;28293;50.930;3.464;2024-02-26T14:17:14;12.88;;;9.93;;
42682;SDS011;28293;50.930;3.464;2024-02-26T14:19:40;11.60;;;9.38;;
42682;SDS011;28293;50.930;3.464;2024-02-26T14:22:10;12.48;;;9.55;;
42682;SDS011;28293;50.930;3.464;2024-02-26T14:24:36;13.27;;;9.52;;
42682;SDS011;28293;50.930;3.464;2024-02-26T14:27:02;12.75;;;9.43;;
42682;SDS011;28293;50.930;3.464;2024-02-26T14:29:29;12.70;;;9.95;;
42682;SDS011;28293;50.930;3.464;2024-02-26T14:31:56;12.00;;;9.43;;
42682;SDS011;28293;50.930;3.464;2024-02-26T14:34:22;14.18;;;10.23;;
42682;SDS011;28293;50.930;3.464;2024-02-26T14:36:48;14.27;;;10.63;;